Filer, Idaho
Current Conditions -  °F | °C
As of 4:53 AM on Monday 22 Dec 2014 (Local Time) from KTWF Reporting Station
Overcast Overcast  
Wind Chill: 32°   Ceiling: 700
Heat Index: 40°   Visibility: 10mi
Dew Point: 36°   Wind: 15mph
Humidity: 86%   Direction: 250°WSW
Pressure: 30.03"   Gusts: NA
Location:  42.57°N, 114.61°W
Report Text: KTWF 221153Z AUTO 25013KT 10SM OVC007 04/02 A3003 RMK AO2 RAE18 SLP158 P0000 60000 70027 T00440022 10050 20028 58002
Loading
Personal Weather Stations






























Interactive Weather Map New forecast layout! Learn more

10-Day Weather Forecast

Advertisements
Track Severe Weather on mobile